createdAt,value
2023-08-13T00:00:11.888Z,64.20
2023-08-13T00:05:16.365Z,64.20
2023-08-13T00:10:19.906Z,64.40
2023-08-13T00:15:24.964Z,64.10
2023-08-13T00:20:28.518Z,64.40
2023-08-13T00:25:32.037Z,64.50
2023-08-13T00:30:38.187Z,64.30
2023-08-13T00:35:41.843Z,64.10
2023-08-13T00:40:45.356Z,64.10
2023-08-13T00:45:50.371Z,64.10
2023-08-13T00:50:53.911Z,64.20
2023-08-13T00:55:58.119Z,64.10
2023-08-13T01:01:03.531Z,64.30
2023-08-13T01:06:11.493Z,64.30
2023-08-13T01:11:21.654Z,64.30
2023-08-13T01:16:26.647Z,64.60
2023-08-13T01:21:30.161Z,64.40
2023-08-13T01:26:40.086Z,64.30
2023-08-13T01:31:46.367Z,64.30
2023-08-13T01:36:50.178Z,64.70
2023-08-13T01:41:56.105Z,64.80
2023-08-13T01:46:59.605Z,64.40
2023-08-13T01:52:03.153Z,64.30
2023-08-13T01:57:08.094Z,64.10
2023-08-13T02:02:12.571Z,64.60
2023-08-13T02:07:16.311Z,64.50
2023-08-13T02:12:21.481Z,64.10
2023-08-13T02:17:25.178Z,64.20
2023-08-13T02:22:28.754Z,64.50
2023-08-13T02:27:33.708Z,64.20
2023-08-13T02:32:37.249Z,64.50
2023-08-13T02:37:40.804Z,64.60
2023-08-13T02:42:45.739Z,64.40
2023-08-13T02:47:49.340Z,64.60
2023-08-13T02:52:53.169Z,64.60
2023-08-13T02:58:09.319Z,64.60
2023-08-13T03:03:13.971Z,64.40
2023-08-13T03:08:17.511Z,64.60
2023-08-13T03:13:22.483Z,64.40
2023-08-13T03:18:26.728Z,64.40
2023-08-13T03:23:30.604Z,64.60
2023-08-13T03:28:35.546Z,64.60
2023-08-13T03:33:39.085Z,64.50
2023-08-13T03:38:42.963Z,64.60
2023-08-13T03:43:47.876Z,64.90
2023-08-13T03:48:51.437Z,64.70
2023-08-13T03:53:54.953Z,64.40
2023-08-13T03:58:59.954Z,64.40
2023-08-13T04:04:03.812Z,64.50
2023-08-13T04:09:07.670Z,64.20
2023-08-13T04:14:12.699Z,64.20
2023-08-13T04:19:16.218Z,64.20
2023-08-13T04:24:19.786Z,63.90
2023-08-13T04:29:24.792Z,64.30
2023-08-13T04:34:28.299Z,64.00
2023-08-13T04:39:31.833Z,64.10
2023-08-13T04:44:36.724Z,64.20
2023-08-13T04:49:40.252Z,64.30
2023-08-13T04:54:44.289Z,64.30
2023-08-13T04:59:49.411Z,64.40
2023-08-13T05:04:52.964Z,64.40
2023-08-13T05:09:56.452Z,64.70
2023-08-13T05:15:01.375Z,64.20
2023-08-13T05:20:07.723Z,64.00
2023-08-13T05:25:11.511Z,64.30
2023-08-13T05:30:17.273Z,64.50
2023-08-13T05:35:21.090Z,64.50
2023-08-13T05:40:24.662Z,64.60
2023-08-13T05:45:29.527Z,64.30
2023-08-13T05:50:33.031Z,64.70
2023-08-13T05:55:36.923Z,64.20
2023-08-13T06:00:42.298Z,65.10
2023-08-13T06:05:47.349Z,64.80
2023-08-13T06:10:51.004Z,64.80
2023-08-13T06:15:55.950Z,64.50
2023-08-13T06:20:59.473Z,64.80
2023-08-13T06:26:03.014Z,64.80
2023-08-13T06:31:08.097Z,65.10
2023-08-13T06:36:11.711Z,64.90
2023-08-13T06:41:15.199Z,65.30
2023-08-13T06:46:20.174Z,65.40
2023-08-13T06:51:23.733Z,65.40
2023-08-13T06:56:27.232Z,65.60
2023-08-13T07:01:32.139Z,65.60
2023-08-13T07:06:36.043Z,65.60
2023-08-13T07:11:39.557Z,65.60
2023-08-13T07:16:44.525Z,65.80
2023-08-13T07:21:48.114Z,65.60
2023-08-13T07:26:51.743Z,66.00
2023-08-13T07:31:56.716Z,65.60
2023-08-13T07:37:00.963Z,65.40
2023-08-13T07:42:04.498Z,65.40
2023-08-13T07:47:09.627Z,65.60
2023-08-13T07:52:13.439Z,65.50
2023-08-13T07:57:17.191Z,65.80
2023-08-13T08:02:22.213Z,65.60
2023-08-13T08:07:26.946Z,66.00
2023-08-13T08:12:30.543Z,65.90
2023-08-13T08:17:36.827Z,65.80
2023-08-13T08:22:41.211Z,65.90
2023-08-13T08:27:44.736Z,66.00
2023-08-13T08:32:49.960Z,65.90
2023-08-13T08:37:53.590Z,65.90
2023-08-13T08:42:57.145Z,66.20
2023-08-13T08:48:02.460Z,66.20
2023-08-13T08:53:06.638Z,66.60
2023-08-13T08:58:10.218Z,66.60
2023-08-13T09:03:15.195Z,66.50
2023-08-13T09:08:20.590Z,66.70
2023-08-13T09:13:24.839Z,66.90
2023-08-13T09:18:29.978Z,67.10
2023-08-13T09:23:33.519Z,67.00
2023-08-13T09:28:45.545Z,67.10
2023-08-13T09:33:50.519Z,66.00
2023-08-13T09:38:54.516Z,66.10
2023-08-13T09:44:02.270Z,66.10
2023-08-13T09:49:10.747Z,66.20
2023-08-13T09:54:17.482Z,66.40
2023-08-13T09:59:21.013Z,66.30
2023-08-13T10:04:27.144Z,66.40
2023-08-13T10:09:30.953Z,66.50
2023-08-13T10:14:34.775Z,66.90
2023-08-13T10:19:41.852Z,66.70
2023-08-13T10:24:45.600Z,66.90
2023-08-13T10:29:49.177Z,67.00
2023-08-13T10:34:55.981Z,67.60
2023-08-13T10:40:09.444Z,67.90
2023-08-13T10:45:17.010Z,68.20
2023-08-13T10:50:38.052Z,68.20
2023-08-13T10:55:43.053Z,68.10
2023-08-13T11:00:46.925Z,68.10
2023-08-13T11:05:53.497Z,68.50
2023-08-13T11:10:57.556Z,68.40
2023-08-13T11:16:01.319Z,68.60
2023-08-13T11:21:07.226Z,68.40
2023-08-13T11:26:11.974Z,69.00
2023-08-13T11:31:16.249Z,69.30
2023-08-13T11:36:21.556Z,69.10
2023-08-13T11:41:25.838Z,69.10
2023-08-13T11:46:29.383Z,69.20
2023-08-13T11:51:34.722Z,68.70
2023-08-13T11:56:40.913Z,68.50
2023-08-13T12:01:44.455Z,68.40
2023-08-13T12:06:49.563Z,68.10
2023-08-13T12:11:56.182Z,68.40
2023-08-13T12:16:59.755Z,68.70
2023-08-13T12:22:04.917Z,68.90
2023-08-13T12:27:08.558Z,68.90
2023-08-13T12:32:12.153Z,68.40
2023-08-13T12:37:17.083Z,68.70
2023-08-13T12:42:21.753Z,68.30
2023-08-13T12:47:25.310Z,68.30
2023-08-13T12:52:30.425Z,68.50
2023-08-13T12:57:34.865Z,68.50
2023-08-13T13:02:38.654Z,68.40
2023-08-13T13:07:43.584Z,68.30
2023-08-13T13:12:47.790Z,68.40
2023-08-13T13:17:51.495Z,68.40
2023-08-13T13:22:56.577Z,68.70
2023-08-13T13:28:02.386Z,68.30
2023-08-13T13:33:06.269Z,68.40
2023-08-13T13:38:11.761Z,68.50
2023-08-13T13:43:15.371Z,68.40
2023-08-13T13:48:18.939Z,68.40
2023-08-13T13:53:23.983Z,68.50
2023-08-13T13:58:27.559Z,68.70
2023-08-13T14:03:31.243Z,68.60
2023-08-13T14:08:36.236Z,68.60
2023-08-13T14:13:39.804Z,69.50
2023-08-13T14:18:43.992Z,69.90
2023-08-13T14:23:48.916Z,69.60
2023-08-13T14:28:53.227Z,70.10
2023-08-13T14:33:56.804Z,70.20
2023-08-13T14:39:04.901Z,70.20
2023-08-13T14:44:08.684Z,69.80
2023-08-13T14:49:12.270Z,69.90
2023-08-13T14:54:17.203Z,69.40
2023-08-13T14:59:21.162Z,69.90
2023-08-13T15:04:25.517Z,69.70
2023-08-13T15:09:31.097Z,69.80
2023-08-13T15:14:34.681Z,68.90
2023-08-13T15:19:38.842Z,69.90
2023-08-13T15:24:43.757Z,69.60
2023-08-13T15:29:47.320Z,69.60
2023-08-13T15:34:50.898Z,69.80
2023-08-13T15:39:55.864Z,69.20
2023-08-13T15:45:00.236Z,68.20
2023-08-13T15:50:03.906Z,67.50
2023-08-13T15:55:09.259Z,68.50
2023-08-13T16:00:14.697Z,68.30
2023-08-13T16:05:18.902Z,68.40
2023-08-13T16:10:23.914Z,68.20
2023-08-13T16:15:28.172Z,68.70
2023-08-13T16:20:31.892Z,68.30
2023-08-13T16:25:36.734Z,67.50
2023-08-13T16:30:40.250Z,68.00
2023-08-13T16:35:43.893Z,67.80
2023-08-13T16:40:48.703Z,67.70
2023-08-13T16:45:52.251Z,68.10
2023-08-13T16:50:55.865Z,68.10
2023-08-13T16:56:01.129Z,68.20
2023-08-13T17:01:04.863Z,68.00
2023-08-13T17:06:08.520Z,68.00
2023-08-13T17:11:13.501Z,67.90
2023-08-13T17:16:17.176Z,68.10
2023-08-13T17:21:20.823Z,67.80
2023-08-13T17:26:26.617Z,67.80
2023-08-13T17:31:31.004Z,67.50
2023-08-13T17:36:34.749Z,67.40
2023-08-13T17:41:39.606Z,67.70
2023-08-13T17:46:43.150Z,67.60
2023-08-13T17:51:46.817Z,67.60
2023-08-13T17:56:51.774Z,67.60
2023-08-13T18:01:55.215Z,67.60
2023-08-13T18:06:58.795Z,67.40
2023-08-13T18:12:03.755Z,67.70
2023-08-13T18:17:07.276Z,68.00
2023-08-13T18:22:10.830Z,67.90
2023-08-13T18:27:16.270Z,68.00
2023-08-13T18:32:19.890Z,68.20
2023-08-13T18:37:23.422Z,68.00
2023-08-13T18:42:28.352Z,67.90
2023-08-13T18:47:31.840Z,67.90
2023-08-13T18:52:35.466Z,68.30
2023-08-13T18:57:40.658Z,68.20
2023-08-13T19:02:44.393Z,68.10
2023-08-13T19:07:48.455Z,68.30
2023-08-13T19:12:53.533Z,67.90
2023-08-13T19:17:57.105Z,68.40
2023-08-13T19:23:00.628Z,68.40
2023-08-13T19:28:06.267Z,68.30
2023-08-13T19:33:09.815Z,68.60
2023-08-13T19:38:13.352Z,68.50
2023-08-13T19:43:20.751Z,68.70
2023-08-13T19:48:24.377Z,69.00
2023-08-13T19:53:28.672Z,69.10
2023-08-13T19:58:33.583Z,68.90
2023-08-13T20:03:37.173Z,69.00
2023-08-13T20:08:40.854Z,69.10
2023-08-13T20:13:45.792Z,68.70
2023-08-13T20:18:49.231Z,69.20
2023-08-13T20:23:52.770Z,69.30
2023-08-13T20:28:57.726Z,69.40
2023-08-13T20:34:01.161Z,69.50
2023-08-13T20:39:05.272Z,69.60
2023-08-13T20:44:10.350Z,69.30
2023-08-13T20:49:20.488Z,69.60
2023-08-13T20:54:24.196Z,69.70
2023-08-13T20:59:29.671Z,69.70
2023-08-13T21:04:33.176Z,69.80
2023-08-13T21:09:36.881Z,69.80
2023-08-13T21:14:42.386Z,69.80
2023-08-13T21:19:46.013Z,69.80
2023-08-13T21:24:49.662Z,70.00
2023-08-13T21:30:06.952Z,69.80
2023-08-13T21:35:12.579Z,70.20
2023-08-13T21:40:16.550Z,69.90
2023-08-13T21:45:21.477Z,70.10
2023-08-13T21:50:25.110Z,70.10
2023-08-13T21:55:28.822Z,69.90
2023-08-13T22:00:33.792Z,69.90
2023-08-13T22:05:42.528Z,69.90
2023-08-13T22:10:46.808Z,70.20
2023-08-13T22:15:51.766Z,70.10
2023-08-13T22:20:55.295Z,70.10
2023-08-13T22:26:05.240Z,70.20
2023-08-13T22:31:21.709Z,70.10
2023-08-13T22:36:25.305Z,70.20
2023-08-13T22:41:28.869Z,70.20
2023-08-13T22:46:33.737Z,70.20
2023-08-13T22:51:37.231Z,70.30
2023-08-13T22:56:40.884Z,69.90
2023-08-13T23:01:46.333Z,70.30
2023-08-13T23:06:49.933Z,70.30
2023-08-13T23:11:54.221Z,70.40
2023-08-13T23:16:59.057Z,70.20
2023-08-13T23:22:02.523Z,70.40
2023-08-13T23:27:06.242Z,70.30
2023-08-13T23:32:12.153Z,70.50
2023-08-13T23:37:15.704Z,70.00
2023-08-13T23:42:19.593Z,70.10
2023-08-13T23:47:24.747Z,70.20
2023-08-13T23:52:28.244Z,70.20
2023-08-13T23:57:33.042Z,70.20
